createdAt,value
2017-11-11T00:01:35.489Z,5.90
2017-11-11T00:04:03.176Z,5.90
2017-11-11T00:06:30.833Z,5.90
2017-11-11T00:08:58.539Z,5.90
2017-11-11T00:11:26.208Z,5.90
2017-11-11T00:13:54.625Z,6.00
2017-11-11T00:16:22.303Z,6.00
2017-11-11T00:18:50.012Z,6.00
2017-11-11T00:21:18.425Z,6.00
2017-11-11T00:23:46.081Z,6.00
2017-11-11T00:26:13.745Z,6.00
2017-11-11T00:28:41.409Z,6.00
2017-11-11T00:31:09.038Z,6.00
2017-11-11T00:33:37.461Z,6.00
2017-11-11T00:36:05.486Z,6.00
2017-11-11T00:38:33.873Z,6.00
2017-11-11T00:41:01.525Z,6.00
2017-11-11T00:43:29.935Z,6.10
2017-11-11T00:45:57.611Z,6.10
2017-11-11T00:48:26.022Z,6.10
2017-11-11T00:53:30.028Z,6.20
2017-11-11T00:56:01.940Z,6.20
2017-11-11T00:58:29.937Z,6.20
2017-11-11T01:00:57.637Z,6.20
2017-11-11T01:03:25.846Z,6.20
2017-11-11T01:05:53.761Z,6.20
2017-11-11T01:08:21.756Z,6.20
2017-11-11T01:10:49.504Z,6.20
2017-11-11T01:13:17.211Z,6.30
2017-11-11T01:15:44.882Z,6.30
2017-11-11T01:18:12.621Z,6.30
2017-11-11T01:20:40.282Z,6.30
2017-11-11T01:23:07.940Z,6.30
2017-11-11T01:25:35.568Z,6.30
2017-11-11T01:28:04.088Z,6.30
2017-11-11T01:30:31.733Z,6.30
2017-11-11T01:32:59.417Z,6.30
2017-11-11T01:35:27.057Z,6.40
2017-11-11T01:37:54.738Z,6.40
2017-11-11T01:40:22.419Z,6.40
2017-11-11T01:42:50.083Z,6.40
2017-11-11T01:45:17.820Z,6.20
2017-11-11T01:47:45.475Z,5.90
2017-11-11T01:50:13.223Z,5.70
2017-11-11T01:52:40.856Z,5.50
2017-11-11T01:55:09.294Z,5.30
2017-11-11T01:57:36.944Z,5.30
2017-11-11T02:00:04.641Z,5.20
2017-11-11T02:02:33.167Z,5.00
2017-11-11T02:05:00.906Z,5.00
2017-11-11T02:07:29.357Z,4.70
2017-11-11T02:09:57.061Z,4.70
2017-11-11T02:12:24.882Z,4.60
2017-11-11T02:14:52.539Z,4.50
2017-11-11T02:17:20.246Z,4.40
2017-11-11T02:19:48.030Z,4.40
2017-11-11T02:22:15.789Z,4.30
2017-11-11T02:24:43.480Z,4.30
2017-11-11T02:27:11.209Z,4.30
2017-11-11T02:29:38.938Z,4.30
2017-11-11T02:32:07.437Z,4.30
2017-11-11T02:34:35.909Z,4.30
2017-11-11T02:37:04.403Z,4.30
2017-11-11T02:39:32.134Z,4.30
2017-11-11T02:42:00.656Z,4.30
2017-11-11T02:44:28.346Z,4.30
2017-11-11T02:46:56.126Z,4.30
2017-11-11T02:49:23.863Z,4.20
2017-11-11T02:51:51.552Z,4.30
2017-11-11T02:54:19.301Z,4.30
2017-11-11T02:56:46.963Z,4.40
2017-11-11T02:59:14.646Z,4.40
2017-11-11T03:01:43.123Z,4.40
2017-11-11T03:04:10.817Z,4.40
2017-11-11T03:06:38.513Z,4.40
2017-11-11T03:09:06.211Z,4.40
2017-11-11T03:11:34.704Z,4.50
2017-11-11T03:14:03.168Z,4.50
2017-11-11T03:16:31.627Z,4.50
2017-11-11T03:18:59.296Z,4.50
2017-11-11T03:21:26.957Z,4.50
2017-11-11T03:23:54.706Z,4.50
2017-11-11T03:26:22.359Z,4.50
2017-11-11T03:28:49.977Z,4.50
2017-11-11T03:31:17.648Z,4.50
2017-11-11T03:33:45.311Z,4.50
2017-11-11T03:36:12.965Z,4.50
2017-11-11T03:38:40.607Z,4.50
2017-11-11T03:41:08.280Z,4.50
2017-11-11T03:43:35.919Z,4.40
2017-11-11T03:46:04.455Z,4.40
2017-11-11T03:48:32.119Z,4.30
2017-11-11T03:50:59.733Z,4.30
2017-11-11T03:53:27.406Z,4.30
2017-11-11T03:55:55.062Z,4.20
2017-11-11T03:58:22.742Z,4.10
2017-11-11T04:00:50.415Z,4.00
2017-11-11T04:03:18.139Z,4.10
2017-11-11T04:05:45.766Z,4.00
2017-11-11T04:08:13.437Z,3.90
2017-11-11T04:10:41.865Z,3.80
2017-11-11T04:13:09.501Z,3.70
2017-11-11T04:15:37.192Z,3.70
2017-11-11T04:18:04.853Z,3.60
2017-11-11T04:20:32.624Z,3.50
2017-11-11T04:23:00.283Z,3.60
2017-11-11T04:25:27.911Z,3.60
2017-11-11T04:27:55.568Z,3.50
2017-11-11T04:30:23.443Z,3.40
2017-11-11T04:32:51.125Z,3.40
2017-11-11T04:35:18.785Z,3.40
2017-11-11T04:37:46.552Z,3.30
2017-11-11T04:40:14.225Z,3.30
2017-11-11T04:42:41.872Z,3.30
2017-11-11T04:45:09.547Z,3.40
2017-11-11T04:47:37.205Z,3.30
2017-11-11T04:50:04.907Z,3.40
2017-11-11T04:52:32.549Z,3.40
2017-11-11T04:55:00.963Z,3.40
2017-11-11T04:57:28.644Z,3.40
2017-11-11T04:59:56.309Z,3.40
2017-11-11T05:02:24.121Z,3.40
2017-11-11T05:04:52.609Z,3.50
2017-11-11T05:07:20.265Z,3.50
2017-11-11T05:09:47.905Z,3.50
2017-11-11T05:12:15.634Z,3.50
2017-11-11T05:14:43.331Z,3.40
2017-11-11T05:17:11.764Z,3.40
2017-11-11T05:19:39.497Z,3.40
2017-11-11T05:22:07.296Z,3.40
2017-11-11T05:24:34.985Z,3.50
2017-11-11T05:27:02.632Z,3.50
2017-11-11T05:29:30.314Z,3.50
2017-11-11T05:31:58.778Z,3.50
2017-11-11T05:34:26.548Z,3.50
2017-11-11T05:36:54.236Z,3.40
2017-11-11T05:39:21.937Z,3.40
2017-11-11T05:41:49.568Z,3.50
2017-11-11T05:44:17.261Z,3.60
2017-11-11T05:46:44.888Z,3.60
2017-11-11T05:49:13.323Z,3.60
2017-11-11T05:51:40.985Z,3.60
2017-11-11T05:54:08.633Z,3.70
2017-11-11T05:56:36.321Z,3.70
2017-11-11T05:59:03.968Z,3.70
2017-11-11T06:01:31.658Z,3.60
2017-11-11T06:03:59.313Z,3.60
2017-11-11T06:06:26.976Z,3.80
2017-11-11T06:08:55.432Z,3.80
2017-11-11T06:11:23.067Z,3.70
2017-11-11T06:13:50.786Z,3.80
2017-11-11T06:16:18.429Z,3.80
2017-11-11T06:18:46.092Z,3.80
2017-11-11T06:21:14.518Z,3.80
2017-11-11T06:23:42.210Z,3.80
2017-11-11T06:26:09.900Z,3.80
2017-11-11T06:28:37.545Z,3.80
2017-11-11T06:31:06.019Z,3.80
2017-11-11T06:33:34.432Z,3.80
2017-11-11T06:36:02.129Z,3.80
2017-11-11T06:38:29.857Z,3.90
2017-11-11T06:40:57.525Z,3.90
2017-11-11T06:43:25.196Z,4.00
2017-11-11T06:45:52.943Z,4.10
2017-11-11T06:48:20.640Z,4.10
2017-11-11T06:50:48.270Z,4.20
2017-11-11T06:53:16.093Z,4.20
2017-11-11T06:55:44.501Z,4.20
2017-11-11T06:58:12.133Z,4.20
2017-11-11T07:00:39.808Z,4.30
2017-11-11T07:03:07.482Z,4.30
2017-11-11T07:05:35.163Z,4.30
2017-11-11T07:08:03.561Z,4.40
2017-11-11T07:10:31.252Z,4.40
2017-11-11T07:12:59.660Z,4.40
2017-11-11T07:15:27.400Z,4.40
2017-11-11T07:17:55.113Z,4.50
2017-11-11T07:20:22.847Z,4.60
2017-11-11T07:22:50.487Z,4.60
2017-11-11T07:25:18.140Z,4.70
2017-11-11T07:27:45.801Z,4.70
2017-11-11T07:30:14.234Z,4.70
2017-11-11T07:32:41.917Z,4.70
2017-11-11T07:35:09.573Z,4.80
2017-11-11T07:37:37.217Z,4.80
2017-11-11T07:40:04.867Z,4.80
2017-11-11T07:42:32.578Z,4.80
2017-11-11T07:45:01.009Z,4.80
2017-11-11T07:47:28.733Z,4.80
2017-11-11T07:49:56.383Z,4.90
2017-11-11T07:52:24.776Z,4.90
2017-11-11T07:54:52.522Z,4.90
2017-11-11T07:57:20.168Z,5.10
2017-11-11T07:59:48.612Z,5.10
2017-11-11T08:02:16.246Z,5.20
2017-11-11T08:04:43.932Z,5.20
2017-11-11T08:07:11.536Z,5.10
2017-11-11T08:09:39.151Z,5.10
2017-11-11T08:12:06.803Z,5.20
2017-11-11T08:14:34.424Z,5.30
2017-11-11T08:17:02.070Z,5.30
2017-11-11T08:19:30.447Z,5.30
2017-11-11T08:21:58.946Z,5.30
2017-11-11T08:24:26.683Z,5.30
2017-11-11T08:26:55.183Z,5.40
2017-11-11T08:29:22.885Z,5.40
2017-11-11T08:31:50.657Z,5.40
2017-11-11T08:34:18.309Z,5.50
2017-11-11T08:36:45.958Z,5.50
2017-11-11T08:39:13.639Z,5.50
2017-11-11T08:41:41.332Z,5.50
2017-11-11T08:44:09.963Z,5.60
2017-11-11T08:46:38.350Z,5.60
2017-11-11T08:49:06.095Z,5.60
2017-11-11T08:51:33.737Z,5.60
2017-11-11T08:54:01.500Z,5.70
2017-11-11T08:56:29.213Z,5.70
2017-11-11T08:58:56.877Z,5.70
2017-11-11T09:01:24.544Z,5.80
2017-11-11T09:03:52.197Z,5.80
2017-11-11T09:06:19.821Z,5.90
2017-11-11T09:08:47.489Z,6.00
2017-11-11T09:11:15.124Z,6.10
2017-11-11T09:13:42.783Z,6.10
2017-11-11T09:16:10.466Z,6.20
2017-11-11T09:18:38.138Z,6.10
2017-11-11T09:21:05.834Z,6.10
2017-11-11T09:23:34.236Z,6.30
2017-11-11T09:26:01.905Z,6.30
2017-11-11T09:28:29.622Z,6.30
2017-11-11T09:30:57.315Z,6.30
2017-11-11T09:33:24.956Z,6.30
2017-11-11T09:35:53.353Z,6.40
2017-11-11T09:38:21.010Z,6.40
2017-11-11T09:40:48.651Z,6.30
2017-11-11T09:43:17.116Z,6.10
2017-11-11T09:45:44.751Z,6.10
2017-11-11T09:48:12.436Z,6.00
2017-11-11T09:50:40.123Z,5.90
2017-11-11T09:53:08.586Z,5.70
2017-11-11T09:55:37.073Z,5.70
2017-11-11T09:58:04.761Z,5.70
2017-11-11T10:00:32.398Z,5.70
2017-11-11T10:03:00.885Z,5.80
2017-11-11T10:05:28.552Z,5.70
2017-11-11T10:07:56.209Z,5.80
2017-11-11T10:10:23.896Z,5.80
2017-11-11T10:12:51.528Z,5.80
2017-11-11T10:15:19.941Z,5.80
2017-11-11T10:17:47.561Z,5.80
2017-11-11T10:20:15.291Z,5.70
2017-11-11T10:22:43.876Z,5.80
2017-11-11T10:25:11.546Z,5.60
2017-11-11T10:27:39.204Z,5.50
2017-11-11T10:30:06.929Z,5.50
2017-11-11T10:32:34.568Z,5.60
2017-11-11T10:35:02.289Z,5.50
2017-11-11T10:37:31.125Z,5.50
2017-11-11T10:39:58.834Z,5.40
2017-11-11T10:42:26.524Z,5.40
2017-11-11T10:44:54.178Z,5.40
2017-11-11T10:47:22.629Z,5.40
2017-11-11T10:49:50.280Z,5.30
2017-11-11T10:52:17.945Z,5.30
2017-11-11T10:54:45.626Z,5.40
2017-11-11T10:57:14.305Z,5.30
2017-11-11T10:59:43.066Z,5.30
2017-11-11T11:02:10.957Z,5.30
2017-11-11T11:04:38.834Z,5.40
2017-11-11T11:07:06.853Z,5.40
2017-11-11T11:09:46.390Z,5.40
2017-11-11T11:12:14.028Z,5.40
2017-11-11T11:14:41.746Z,5.30
2017-11-11T11:17:09.637Z,5.40
2017-11-11T11:19:38.093Z,5.30
2017-11-11T11:22:05.737Z,5.30
2017-11-11T11:24:33.490Z,5.30
2017-11-11T11:27:01.232Z,5.30
2017-11-11T11:29:28.913Z,5.30
2017-11-11T11:31:58.074Z,5.20
2017-11-11T11:34:26.169Z,5.20
2017-11-11T11:36:54.165Z,5.20
2017-11-11T11:39:24.355Z,5.30
2017-11-11T11:41:52.574Z,5.30
2017-11-11T11:44:21.072Z,5.40
2017-11-11T11:46:50.600Z,5.50
2017-11-11T11:49:18.338Z,5.50
2017-11-11T11:51:46.382Z,5.40
2017-11-11T11:54:15.260Z,5.50
2017-11-11T11:56:43.324Z,5.50
2017-11-11T11:59:11.553Z,5.60
2017-11-11T12:01:40.116Z,5.60
2017-11-11T12:04:07.888Z,5.60
2017-11-11T12:06:36.908Z,5.60
2017-11-11T12:09:04.954Z,5.60
2017-11-11T12:11:32.824Z,5.60
2017-11-11T12:14:00.912Z,5.60
2017-11-11T12:16:28.856Z,5.60
2017-11-11T12:18:57.971Z,5.70
2017-11-11T12:21:27.178Z,5.70
2017-11-11T12:23:55.207Z,5.70
2017-11-11T12:26:23.527Z,5.70
2017-11-11T12:28:51.796Z,5.70
2017-11-11T12:31:19.796Z,5.80
2017-11-11T12:33:48.348Z,5.80
2017-11-11T12:36:18.309Z,5.80
2017-11-11T12:38:46.750Z,5.80
2017-11-11T12:41:15.433Z,5.80
2017-11-11T12:43:43.565Z,5.80
2017-11-11T12:46:12.820Z,5.80
2017-11-11T12:48:40.781Z,5.80
2017-11-11T12:51:10.138Z,5.80
2017-11-11T12:53:38.118Z,5.80
2017-11-11T12:56:06.590Z,5.90
2017-11-11T12:58:34.676Z,5.90
2017-11-11T13:01:02.673Z,5.90
2017-11-11T13:03:31.234Z,6.00
2017-11-11T13:05:59.105Z,6.00
2017-11-11T13:08:27.010Z,6.10
2017-11-11T13:10:54.689Z,6.10
2017-11-11T13:13:23.602Z,6.20
2017-11-11T13:15:51.492Z,6.10
2017-11-11T13:18:19.165Z,6.10
2017-11-11T13:20:46.845Z,6.10
2017-11-11T13:23:14.601Z,6.10
2017-11-11T13:25:42.233Z,6.10
2017-11-11T13:28:10.671Z,6.10
2017-11-11T13:30:38.374Z,6.10
2017-11-11T13:33:06.876Z,6.00
2017-11-11T13:35:34.536Z,6.10
2017-11-11T13:38:02.281Z,6.00
2017-11-11T13:40:30.769Z,6.00
2017-11-11T13:42:59.253Z,6.00
2017-11-11T13:45:27.745Z,6.00
2017-11-11T13:47:55.455Z,6.00
2017-11-11T13:50:23.117Z,6.00
2017-11-11T13:52:50.770Z,6.00
2017-11-11T13:55:19.339Z,6.00
2017-11-11T13:57:47.437Z,6.00
2017-11-11T14:00:18.242Z,5.90
2017-11-11T14:02:47.204Z,6.00
2017-11-11T14:08:16.178Z,6.00
2017-11-11T14:10:44.896Z,6.00
2017-11-11T14:13:13.372Z,6.00
2017-11-11T14:15:41.612Z,6.00
2017-11-11T14:18:09.409Z,6.00
2017-11-11T14:20:37.025Z,6.00
2017-11-11T14:23:04.665Z,6.00
2017-11-11T14:25:32.297Z,6.00
2017-11-11T14:28:00.021Z,6.00
2017-11-11T14:30:28.440Z,6.20
2017-11-11T14:32:56.152Z,6.10
2017-11-11T14:35:23.831Z,6.20
2017-11-11T14:37:52.243Z,6.00
2017-11-11T14:40:19.919Z,6.00
2017-11-11T14:42:47.560Z,6.00
2017-11-11T14:45:15.276Z,6.00
2017-11-11T14:47:42.885Z,6.00
2017-11-11T14:50:10.566Z,6.00
2017-11-11T14:52:38.273Z,6.00
2017-11-11T14:55:06.668Z,6.00
2017-11-11T14:57:34.393Z,6.00
2017-11-11T15:00:02.125Z,5.90
2017-11-11T15:02:29.807Z,5.90
2017-11-11T15:04:57.667Z,5.90
2017-11-11T15:07:25.415Z,6.00
2017-11-11T15:09:53.069Z,5.90
2017-11-11T15:12:20.746Z,5.90
2017-11-11T15:14:48.528Z,5.90
2017-11-11T15:17:16.187Z,5.90
2017-11-11T15:19:44.616Z,5.90
2017-11-11T15:22:12.293Z,5.90
2017-11-11T15:24:39.918Z,5.80
2017-11-11T15:27:07.618Z,5.90
2017-11-11T15:29:35.341Z,5.80
2017-11-11T15:32:03.058Z,5.90
2017-11-11T15:34:30.710Z,5.90
2017-11-11T15:36:58.434Z,5.90
2017-11-11T15:39:26.171Z,5.90
2017-11-11T15:41:54.009Z,5.80
2017-11-11T15:44:21.753Z,5.90
2017-11-11T15:46:49.417Z,5.90
2017-11-11T15:49:17.603Z,5.80
2017-11-11T15:51:45.353Z,5.90
2017-11-11T15:54:12.992Z,5.90
2017-11-11T15:56:40.781Z,5.90
2017-11-11T15:59:08.443Z,5.90
2017-11-11T16:01:36.135Z,5.90
2017-11-11T16:04:03.882Z,5.90
2017-11-11T16:06:31.604Z,6.00
2017-11-11T16:08:59.300Z,6.00
2017-11-11T16:11:27.036Z,6.00
2017-11-11T16:13:54.727Z,6.00
2017-11-11T16:16:23.028Z,6.00
2017-11-11T16:18:50.751Z,6.00
2017-11-11T16:21:18.488Z,6.00
2017-11-11T16:23:47.416Z,6.00
2017-11-11T16:26:15.261Z,6.00
2017-11-11T16:28:43.236Z,6.00
2017-11-11T16:31:10.928Z,6.00
2017-11-11T16:33:39.386Z,6.10
2017-11-11T16:36:07.040Z,6.10
2017-11-11T16:38:34.807Z,6.10
2017-11-11T16:41:02.466Z,6.10
2017-11-11T16:43:30.245Z,6.10
2017-11-11T16:45:58.736Z,6.10
2017-11-11T16:48:26.433Z,6.10
2017-11-11T16:50:54.113Z,6.10
2017-11-11T16:53:21.847Z,6.10
2017-11-11T16:55:50.305Z,6.20
2017-11-11T16:58:17.966Z,6.20
2017-11-11T17:00:45.686Z,6.20
2017-11-11T17:03:13.313Z,6.20
2017-11-11T17:05:41.017Z,6.10
2017-11-11T17:08:08.653Z,6.20
2017-11-11T17:10:36.393Z,6.20
2017-11-11T17:13:04.213Z,6.20
2017-11-11T17:15:32.768Z,6.30
2017-11-11T17:18:00.596Z,6.30
2017-11-11T17:20:28.512Z,6.30
2017-11-11T17:22:56.285Z,6.30
2017-11-11T17:25:25.213Z,6.30
2017-11-11T17:27:52.954Z,6.30
2017-11-11T17:30:21.737Z,6.40
2017-11-11T17:32:49.528Z,6.40
2017-11-11T17:35:17.886Z,6.40
2017-11-11T17:37:45.645Z,6.40
2017-11-11T17:40:13.393Z,6.40
2017-11-11T17:42:41.043Z,6.40
2017-11-11T17:45:09.031Z,6.50
2017-11-11T17:47:36.858Z,6.50
2017-11-11T17:50:04.598Z,6.60
2017-11-11T17:52:32.422Z,6.50
2017-11-11T17:55:01.055Z,6.60
2017-11-11T17:57:28.736Z,6.60
2017-11-11T17:59:57.150Z,6.60
2017-11-11T18:02:25.694Z,6.50
2017-11-11T18:04:53.388Z,6.50
2017-11-11T18:07:21.094Z,6.70
2017-11-11T18:09:48.873Z,6.60
2017-11-11T18:12:16.517Z,6.60
2017-11-11T18:14:44.191Z,6.70
2017-11-11T18:17:11.949Z,6.60
2017-11-11T18:19:39.764Z,6.70
2017-11-11T18:22:10.172Z,6.70
2017-11-11T18:24:38.664Z,6.70
2017-11-11T18:27:06.324Z,6.70
2017-11-11T18:29:34.183Z,6.80
2017-11-11T18:32:02.511Z,6.80
2017-11-11T18:34:30.206Z,6.90
2017-11-11T18:36:58.668Z,6.90
2017-11-11T18:39:26.304Z,6.90
2017-11-11T18:41:53.993Z,6.90
2017-11-11T18:44:21.625Z,7.00
2017-11-11T18:46:49.330Z,7.00
2017-11-11T18:49:17.726Z,7.10
2017-11-11T18:51:46.455Z,7.10
2017-11-11T18:54:14.177Z,7.10
2017-11-11T18:56:41.807Z,7.10
2017-11-11T18:59:10.390Z,7.10
2017-11-11T19:01:38.075Z,7.00
2017-11-11T19:04:06.181Z,7.10
2017-11-11T19:06:34.444Z,7.20
2017-11-11T19:09:02.160Z,7.20
2017-11-11T19:11:30.092Z,7.20
2017-11-11T19:13:57.922Z,7.20
2017-11-11T19:16:25.905Z,7.20
2017-11-11T19:18:54.633Z,7.20
2017-11-11T19:21:22.415Z,7.20
2017-11-11T19:23:50.195Z,7.30
2017-11-11T19:26:17.924Z,7.30
2017-11-11T19:28:45.689Z,7.30
2017-11-11T19:31:13.352Z,7.30
2017-11-11T19:33:41.795Z,7.30
2017-11-11T19:36:09.448Z,7.30
2017-11-11T19:38:37.228Z,7.30
2017-11-11T19:41:04.925Z,7.30
2017-11-11T19:43:33.353Z,7.30
2017-11-11T19:46:01.058Z,7.20
2017-11-11T19:48:28.847Z,7.30
2017-11-11T19:50:56.597Z,7.30
2017-11-11T19:53:24.425Z,7.30
2017-11-11T19:55:52.264Z,7.30
2017-11-11T19:58:20.074Z,7.30
2017-11-11T20:00:48.587Z,7.30
2017-11-11T20:03:16.343Z,7.30
2017-11-11T20:05:44.229Z,7.30
2017-11-11T20:08:12.176Z,7.20
2017-11-11T20:10:46.042Z,7.30
2017-11-11T20:13:14.030Z,7.30
2017-11-11T20:15:43.242Z,7.30
2017-11-11T20:18:11.156Z,7.30
2017-11-11T20:20:39.801Z,7.30
2017-11-11T20:23:07.619Z,7.30
2017-11-11T20:25:36.352Z,7.40
2017-11-11T20:28:04.916Z,7.40
2017-11-11T20:30:32.765Z,7.40
2017-11-11T20:33:01.412Z,7.40
2017-11-11T20:35:29.173Z,7.40
2017-11-11T20:37:56.896Z,7.40
2017-11-11T20:40:24.708Z,7.50
2017-11-11T20:42:52.603Z,7.40
2017-11-11T20:45:21.128Z,7.40
2017-11-11T20:47:48.905Z,7.40
2017-11-11T20:50:16.699Z,7.40
2017-11-11T20:52:44.646Z,7.40
2017-11-11T20:55:12.400Z,7.60
2017-11-11T20:57:40.299Z,7.60
2017-11-11T21:00:08.887Z,7.60
2017-11-11T21:02:37.349Z,7.70
2017-11-11T21:05:05.825Z,7.70
2017-11-11T21:07:33.553Z,7.70
2017-11-11T21:10:01.239Z,7.70
2017-11-11T21:12:29.007Z,7.70
2017-11-11T21:14:56.909Z,7.70
2017-11-11T21:17:24.632Z,7.90
2017-11-11T21:19:53.284Z,7.90
2017-11-11T21:22:21.117Z,7.90
2017-11-11T21:24:48.824Z,7.90
2017-11-11T21:27:16.549Z,7.90
2017-11-11T21:29:45.346Z,7.90
2017-11-11T21:32:14.136Z,7.90
2017-11-11T21:34:41.824Z,7.80
2017-11-11T21:37:09.471Z,7.80
2017-11-11T21:39:37.252Z,7.80
2017-11-11T21:42:05.036Z,7.80
2017-11-11T21:44:33.522Z,7.70
2017-11-11T21:47:01.943Z,7.80
2017-11-11T21:49:29.606Z,7.80
2017-11-11T21:51:57.277Z,7.80
2017-11-11T21:54:25.151Z,7.90
2017-11-11T21:56:52.790Z,7.90
2017-11-11T21:59:20.456Z,7.90
2017-11-11T22:01:48.154Z,7.90
2017-11-11T22:04:16.528Z,8.00
2017-11-11T22:06:44.984Z,8.00
2017-11-11T22:09:12.652Z,7.90
2017-11-11T22:11:40.332Z,7.90
2017-11-11T22:14:08.796Z,7.90
2017-11-11T22:16:36.456Z,7.90
2017-11-11T22:19:04.190Z,7.90
2017-11-11T22:21:31.812Z,7.90
2017-11-11T22:23:59.496Z,8.00
2017-11-11T22:26:27.145Z,8.00
2017-11-11T22:28:54.803Z,8.10
2017-11-11T22:31:22.795Z,8.10
2017-11-11T22:33:50.727Z,8.10
2017-11-11T22:36:18.650Z,8.10
2017-11-11T22:38:46.572Z,8.10
2017-11-11T22:41:14.814Z,8.20
2017-11-11T22:43:42.746Z,8.20
2017-11-11T22:46:10.666Z,8.20
2017-11-11T22:48:38.581Z,8.20
2017-11-11T22:51:06.597Z,8.10
2017-11-11T22:53:35.269Z,8.10
2017-11-11T22:56:03.878Z,8.10
2017-11-11T22:58:31.609Z,8.10
2017-11-11T23:01:00.169Z,8.00
2017-11-11T23:03:27.950Z,8.00
2017-11-11T23:05:55.756Z,8.00
2017-11-11T23:08:23.709Z,7.90
2017-11-11T23:10:51.428Z,7.90
2017-11-11T23:13:19.180Z,7.80
2017-11-11T23:15:47.032Z,7.80
2017-11-11T23:18:14.738Z,7.80
2017-11-11T23:20:43.364Z,7.90
2017-11-11T23:23:11.041Z,7.90
2017-11-11T23:25:39.168Z,7.90
2017-11-11T23:28:06.865Z,7.90
2017-11-11T23:30:34.674Z,7.90
2017-11-11T23:33:03.257Z,7.80
2017-11-11T23:35:31.717Z,7.80
2017-11-11T23:38:00.161Z,7.80
2017-11-11T23:40:28.140Z,7.80
2017-11-11T23:42:57.516Z,7.80
2017-11-11T23:45:25.914Z,7.80
2017-11-11T23:47:53.612Z,7.80
2017-11-11T23:50:22.067Z,7.80
2017-11-11T23:52:49.723Z,7.80
2017-11-11T23:55:17.408Z,7.80
2017-11-11T23:57:45.812Z,7.70
